Time;durP1;ratioP1;P1;durP2;ratioP2;P2;SDS_P1;SDS_P2;PMS_P1;PMS_P2;Temp;Humidity;BMP_temperature;BMP_pressure;BME280_temperature;BME280_humidity;BME280_pressure;Samples;Min_cycle;Max_cycle;Signal;HPM_P1;HPM_P2
2023/03/26 00:01:04;;;;;;;23.52;2.70;;;;;;;6.15;100.00;100776.47;5055620;28;20115;-69
2023/03/26 00:03:34;;;;;;;10.85;2.05;;;;;;;6.16;100.00;100772.88;5055176;28;20025;-69
2023/03/26 00:06:08;;;;;;;13.48;2.13;;;;;;;6.13;100.00;100778.41;5055510;28;20131;-69
2023/03/26 00:08:35;;;;;;;8.80;2.22;;;;;;;6.10;100.00;100771.53;5055214;28;20061;-70
2023/03/26 00:11:01;;;;;;;7.80;2.80;;;;;;;6.10;100.00;100776.81;5055498;28;20044;-69
2023/03/26 00:13:27;;;;;;;9.30;1.92;;;;;;;6.13;100.00;100771.31;5054784;28;20052;-69
2023/03/26 00:15:52;;;;;;;10.52;2.17;;;;;;;6.15;100.00;100764.13;5055457;28;20461;-69
2023/03/26 00:18:20;;;;;;;14.07;2.40;;;;;;;6.17;100.00;100761.38;5054740;28;20037;-69
2023/03/26 00:20:46;;;;;;;14.43;2.55;;;;;;;6.20;100.00;100760.31;5055222;28;20041;-69
2023/03/26 00:23:12;;;;;;;7.43;1.70;;;;;;;6.18;100.00;100760.44;5054964;28;20112;-69
2023/03/26 00:25:40;;;;;;;13.32;1.98;;;;;;;6.15;100.00;100756.19;5054804;28;20484;-69
2023/03/26 00:28:07;;;;;;;6.13;1.80;;;;;;;6.15;100.00;100752.69;5055051;28;20033;-70
2023/03/26 00:30:34;;;;;;;9.35;1.88;;;;;;;6.15;100.00;100747.41;5054779;28;20029;-69
2023/03/26 00:33:00;;;;;;;12.60;1.73;;;;;;;6.14;100.00;100743.09;5055042;28;20362;-70
2023/03/26 00:35:28;;;;;;;16.40;1.98;;;;;;;6.15;100.00;100744.78;5054561;28;20029;-70
2023/03/26 00:37:53;;;;;;;15.13;2.45;;;;;;;6.16;100.00;100730.63;5054325;28;20029;-69
2023/03/26 00:40:18;;;;;;;10.43;1.70;;;;;;;6.15;100.00;100735.06;5054572;28;20041;-70
2023/03/26 00:42:44;;;;;;;11.55;2.13;;;;;;;6.16;100.00;100735.91;5054838;28;20025;-69
2023/03/26 00:45:10;;;;;;;8.82;1.88;;;;;;;6.15;100.00;100728.91;5054826;28;20083;-70
2023/03/26 00:47:35;;;;;;;7.78;1.90;;;;;;;6.15;100.00;100718.34;5054095;28;20470;-69
2023/03/26 00:50:03;;;;;;;17.15;2.90;;;;;;;6.15;100.00;100715.72;5054923;28;20045;-69
2023/03/26 00:52:29;;;;;;;16.70;2.75;;;;;;;6.14;100.00;100719.34;5054328;28;20044;-70
2023/03/26 00:54:54;;;;;;;19.17;2.65;;;;;;;6.14;100.00;100714.03;5054282;28;20037;-69
2023/03/26 00:57:21;;;;;;;18.52;2.50;;;;;;;6.12;100.00;100710.66;5054527;28;20039;-70
2023/03/26 00:59:50;;;;;;;18.58;2.88;;;;;;;6.11;100.00;100709.00;5054573;28;20128;-69
2023/03/26 01:02:19;;;;;;;18.65;3.13;;;;;;;6.10;100.00;100696.72;5054268;28;20041;-68
2023/03/26 01:04:47;;;;;;;20.98;3.20;;;;;;;6.10;100.00;100689.63;5053998;28;20040;-68
2023/03/26 01:07:20;;;;;;;25.48;3.60;;;;;;;6.09;100.00;100692.41;5035945;28;20394;-68
2023/03/26 01:09:49;;;;;;;24.58;3.58;;;;;;;6.08;100.00;100694.19;5054022;28;20043;-69
2023/03/26 01:12:19;;;;;;;20.80;3.88;;;;;;;6.10;100.00;100686.16;5054457;28;20428;-69
2023/03/26 01:14:56;;;;;;;20.55;4.10;;;;;;;6.05;100.00;100685.69;5053867;28;20115;-68
2023/03/26 01:17:23;;;;;;;21.25;3.67;;;;;;;5.99;100.00;100694.88;5054382;28;20033;-69
2023/03/26 01:20:13;;;;;;;22.33;3.65;;;;;;;5.93;100.00;100695.31;5054546;28;20060;-69
2023/03/26 01:22:49;;;;;;;20.50;4.23;;;;;;;5.84;100.00;100686.25;5054050;28;20025;-68
2023/03/26 01:25:15;;;;;;;28.13;4.22;;;;;;;5.76;100.00;100681.53;5054096;28;20143;-68
2023/03/26 01:27:53;;;;;;;27.08;4.25;;;;;;;5.64;100.00;100674.50;5053682;28;20063;-68
2023/03/26 01:30:41;;;;;;;20.60;3.60;;;;;;;5.49;100.00;100676.44;5054172;28;20381;-68
2023/03/26 01:33:35;;;;;;;29.70;4.47;;;;;;;5.37;100.00;100670.25;5054068;28;20504;-70
2023/03/26 01:36:12;;;;;;;30.85;4.88;;;;;;;5.27;100.00;100658.69;5053913;28;20032;-69
2023/03/26 01:38:53;;;;;;;28.00;4.60;;;;;;;5.18;100.00;100647.00;5053191;28;20079;-69
2023/03/26 01:41:28;;;;;;;37.33;4.90;;;;;;;5.11;100.00;100646.56;5053771;28;20115;-69
2023/03/26 01:44:02;;;;;;;28.00;5.55;;;;;;;5.04;100.00;100641.84;5053794;28;20103;-71
2023/03/26 01:46:34;;;;;;;49.33;6.20;;;;;;;4.94;100.00;100639.84;5053485;28;20121;-70
2023/03/26 01:49:02;;;;;;;30.17;4.82;;;;;;;4.87;100.00;100641.22;5052999;28;20452;-68
2023/03/26 01:51:34;;;;;;;25.33;4.50;;;;;;;4.81;100.00;100641.66;5052606;28;20025;-69
2023/03/26 01:54:06;;;;;;;28.25;5.15;;;;;;;4.73;100.00;100634.28;5053416;28;20084;-68
2023/03/26 01:57:00;;;;;;;34.15;7.00;;;;;;;4.66;100.00;100632.16;5053104;28;20541;-68
2023/03/26 01:59:35;;;;;;;31.27;4.85;;;;;;;4.57;100.00;100631.84;5051893;28;20029;-68
2023/03/26 02:02:21;;;;;;;29.00;5.20;;;;;;;4.51;100.00;100628.78;5053423;28;20033;-68
2023/03/26 02:05:20;;;;;;;39.42;5.13;;;;;;;4.47;100.00;100627.34;5052979;28;20028;-68
2023/03/26 02:07:52;;;;;;;43.90;6.45;;;;;;;4.46;100.00;100630.91;5052911;28;20099;-69
2023/03/26 02:10:21;;;;;;;52.05;6.63;;;;;;;4.44;100.00;100632.81;5053195;28;20170;-68
2023/03/26 02:12:46;;;;;;;44.50;6.95;;;;;;;4.40;100.00;100629.53;5052681;28;20041;-68
2023/03/26 02:15:12;;;;;;;30.75;4.90;;;;;;;4.35;100.00;100626.38;5035297;28;20029;-68
2023/03/26 02:17:41;;;;;;;40.60;5.97;;;;;;;4.28;100.00;100620.66;5052516;28;20033;-68
2023/03/26 02:20:09;;;;;;;33.63;4.75;;;;;;;4.24;100.00;100625.31;5052840;28;20048;-69
2023/03/26 02:22:39;;;;;;;37.70;5.15;;;;;;;4.23;100.00;100625.41;5052481;28;20032;-69
2023/03/26 02:25:10;;;;;;;35.85;6.05;;;;;;;4.31;100.00;100619.63;5053146;28;20448;-69
2023/03/26 02:27:37;;;;;;;31.77;5.15;;;;;;;4.42;100.00;100619.75;5052783;28;20051;-69
2023/03/26 02:30:05;;;;;;;54.30;6.68;;;;;;;4.56;100.00;100611.72;5052786;28;20021;-68
2023/03/26 02:32:31;;;;;;;66.70;9.10;;;;;;;4.90;100.00;100608.53;5053107;28;20039;-69
2023/03/26 02:34:56;;;;;;;61.60;8.13;;;;;;;5.10;100.00;100604.47;5052284;28;20029;-69
2023/03/26 02:37:22;;;;;;;75.03;7.85;;;;;;;5.28;100.00;100603.19;5052738;28;20520;-69
2023/03/26 02:39:47;;;;;;;61.08;7.32;;;;;;;5.38;100.00;100605.13;5050838;28;20041;-70
2023/03/26 02:42:14;;;;;;;55.72;7.32;;;;;;;5.48;100.00;100595.59;5052748;28;20064;-69
2023/03/26 02:44:40;;;;;;;72.68;8.73;;;;;;;5.58;100.00;100596.63;5052074;28;20041;-70
2023/03/26 02:47:06;;;;;;;73.55;9.15;;;;;;;5.66;100.00;100593.41;5052532;28;20033;-69
2023/03/26 02:49:32;;;;;;;76.75;9.15;;;;;;;5.70;100.00;100584.28;5052690;28;20424;-69
2023/03/26 02:51:58;;;;;;;68.25;9.18;;;;;;;5.73;100.00;100578.81;5052284;28;20436;-69
2023/03/26 02:54:23;;;;;;;65.78;8.95;;;;;;;5.75;100.00;100576.06;5052679;28;20025;-69
2023/03/26 02:56:49;;;;;;;66.28;11.10;;;;;;;5.78;100.00;100571.38;5052040;28;20037;-69
2023/03/26 02:59:15;;;;;;;78.07;10.27;;;;;;;5.81;100.00;100575.59;5034187;28;20366;-69
2023/03/26 03:01:41;;;;;;;58.17;8.93;;;;;;;5.83;100.00;100576.31;5051785;28;20029;-69
2023/03/26 03:04:10;;;;;;;62.42;8.25;;;;;;;5.86;100.00;100578.72;5052066;28;20037;-69
2023/03/26 03:06:37;;;;;;;70.78;9.02;;;;;;;5.90;100.00;100581.97;5052436;28;20037;-69
2023/03/26 03:09:04;;;;;;;66.28;9.48;;;;;;;5.94;100.00;100580.78;5051872;28;20037;-69
2023/03/26 03:11:30;;;;;;;61.92;8.25;;;;;;;5.98;100.00;100582.25;5052177;28;20029;-69
2023/03/26 03:13:56;;;;;;;67.20;9.15;;;;;;;6.04;100.00;100580.97;5033806;28;20039;-69
2023/03/26 03:16:22;;;;;;;55.40;8.60;;;;;;;6.07;100.00;100573.63;5052315;28;20033;-69
2023/03/26 03:18:53;;;;;;;57.03;8.98;;;;;;;6.12;100.00;100568.88;5052164;28;20531;-69
2023/03/26 03:21:28;;;;;;;57.60;9.55;;;;;;;6.16;100.00;100561.53;5052337;28;20064;-69
2023/03/26 03:23:56;;;;;;;53.28;8.52;;;;;;;6.21;100.00;100563.81;5051559;28;20572;-70
2023/03/26 03:26:28;;;;;;;68.13;11.50;;;;;;;6.24;100.00;100559.16;5052183;28;20048;-69
2023/03/26 03:28:56;;;;;;;60.75;10.13;;;;;;;6.26;100.00;100556.41;5051720;28;20025;-69
2023/03/26 03:31:23;;;;;;;69.97;9.77;;;;;;;6.28;100.00;100554.47;5052043;28;20037;-69
2023/03/26 03:33:49;;;;;;;63.65;9.00;;;;;;;6.28;100.00;100550.03;5051788;28;20025;-69
2023/03/26 03:36:17;;;;;;;58.08;9.90;;;;;;;6.28;100.00;100547.38;5051985;28;20064;-70
2023/03/26 03:38:43;;;;;;;72.05;9.88;;;;;;;6.30;100.00;100545.47;5051723;28;20377;-71
2023/03/26 03:41:08;;;;;;;61.17;10.43;;;;;;;6.32;100.00;100540.06;5051973;28;20116;-70
2023/03/26 03:43:34;;;;;;;57.30;8.52;;;;;;;6.35;100.00;100548.59;5034082;28;20171;-69
2023/03/26 03:46:00;;;;;;;62.78;10.10;;;;;;;6.36;100.00;100541.53;5050239;28;20036;-68
2023/03/26 03:48:26;;;;;;;49.85;9.68;;;;;;;6.37;100.00;100535.25;5052161;28;20053;-68
2023/03/26 03:50:52;;;;;;;68.63;8.80;;;;;;;6.40;100.00;100535.00;5051556;28;20029;-69
2023/03/26 03:53:18;;;;;;;52.40;7.80;;;;;;;6.42;100.00;100532.25;5051920;28;20040;-69
2023/03/26 03:55:51;;;;;;;55.47;9.50;;;;;;;6.43;100.00;100526.84;5051802;28;20029;-70
2023/03/26 03:58:26;;;;;;;59.00;8.60;;;;;;;6.45;100.00;100518.78;5051904;28;20055;-70
2023/03/26 04:00:59;;;;;;;44.70;8.23;;;;;;;6.44;100.00;100523.25;5051070;28;20439;-70
2023/03/26 04:03:26;;;;;;;45.38;6.85;;;;;;;6.43;100.00;100515.44;5051802;28;20105;-69
2023/03/26 04:05:53;;;;;;;46.35;7.07;;;;;;;6.40;100.00;100508.59;5033361;28;20107;-70
2023/03/26 04:08:23;;;;;;;48.53;6.97;;;;;;;6.37;100.00;100502.72;5052070;28;20040;-70
2023/03/26 04:10:49;;;;;;;45.53;7.50;;;;;;;6.34;100.00;100495.84;5051205;28;20036;-70
2023/03/26 04:13:15;;;;;;;63.03;7.88;;;;;;;6.30;100.00;100497.91;5052844;28;20040;-70
2023/03/26 04:15:41;;;;;;;58.03;8.68;;;;;;;6.28;100.00;100497.16;5037598;28;20033;-70
2023/03/26 04:18:11;;;;;;;58.10;7.82;;;;;;;6.27;100.00;100492.88;5054945;28;20037;-70
2023/03/26 04:20:37;;;;;;;56.20;8.80;;;;;;;6.27;100.00;100495.50;5055331;28;20377;-70
2023/03/26 04:23:03;;;;;;;50.35;8.50;;;;;;;6.27;100.00;100489.38;5054830;28;20044;-70
2023/03/26 04:25:32;;;;;;;52.78;9.27;;;;;;;6.26;100.00;100479.78;5055339;28;20105;-70
2023/03/26 04:28:05;;;;;;;46.00;7.55;;;;;;;6.24;100.00;100477.25;5054662;28;20107;-70
2023/03/26 04:30:32;;;;;;;55.15;7.93;;;;;;;6.25;100.00;100473.63;5054960;28;20033;-69
2023/03/26 04:33:02;;;;;;;54.78;7.90;;;;;;;6.26;100.00;100469.22;5054703;28;20055;-69
2023/03/26 04:35:33;;;;;;;41.65;7.93;;;;;;;6.25;100.00;100462.25;5055163;28;20037;-68
2023/03/26 04:37:59;;;;;;;39.40;8.07;;;;;;;6.23;100.00;100459.72;5054699;28;20215;-68
2023/03/26 04:40:24;;;;;;;47.78;8.98;;;;;;;6.24;100.00;100460.53;5055133;28;20029;-69
2023/03/26 04:42:53;;;;;;;50.13;8.70;;;;;;;6.21;100.00;100460.78;5054979;28;20036;-68
2023/03/26 04:45:21;;;;;;;40.17;7.28;;;;;;;6.18;100.00;100453.97;5054913;28;20029;-69
2023/03/26 04:47:47;;;;;;;34.88;7.65;;;;;;;6.18;100.00;100446.88;5054394;28;20037;-69
2023/03/26 04:50:13;;;;;;;63.65;8.82;;;;;;;6.18;100.00;100446.03;5054395;28;20366;-68
2023/03/26 04:52:39;;;;;;;47.58;9.25;;;;;;;6.16;100.00;100437.38;5054645;28;20059;-68
2023/03/26 04:55:12;;;;;;;49.67;8.63;;;;;;;6.14;100.00;100437.50;5054168;28;20043;-68
2023/03/26 04:57:45;;;;;;;50.10;8.82;;;;;;;6.10;100.00;100420.19;5054764;28;20025;-69
2023/03/26 05:00:17;;;;;;;38.00;8.77;;;;;;;6.09;100.00;100428.25;5054284;28;20036;-69
2023/03/26 05:02:43;;;;;;;44.70;8.35;;;;;;;6.05;100.00;100422.38;5054618;28;20068;-68
2023/03/26 05:05:09;;;;;;;40.38;8.43;;;;;;;6.03;100.00;100415.53;5054200;28;20477;-68
2023/03/26 05:07:35;;;;;;;46.75;8.15;;;;;;;5.99;100.00;100409.66;5054579;28;20474;-68
2023/03/26 05:10:02;;;;;;;44.08;9.27;;;;;;;5.96;100.00;100413.34;5053818;28;20460;-68
2023/03/26 05:12:28;;;;;;;47.95;9.10;;;;;;;5.93;100.00;100407.47;5054348;28;20469;-68
2023/03/26 05:14:54;;;;;;;44.90;8.70;;;;;;;5.93;100.00;100407.47;5054283;28;20029;-68
2023/03/26 05:17:22;;;;;;;39.53;8.00;;;;;;;5.91;100.00;100404.94;5053893;28;20028;-68
2023/03/26 05:19:48;;;;;;;46.83;10.32;;;;;;;5.91;100.00;100404.09;5054240;28;20029;-69
2023/03/26 05:22:13;;;;;;;37.22;9.18;;;;;;;5.90;100.00;100408.53;5053776;28;20031;-68
2023/03/26 05:24:38;;;;;;;45.13;9.32;;;;;;;5.88;100.00;100388.47;5053916;28;20392;-69
2023/03/26 05:27:04;;;;;;;41.33;9.70;;;;;;;5.86;100.00;100393.88;5053750;28;20111;-70
2023/03/26 05:29:29;;;;;;;50.33;8.88;;;;;;;5.85;100.00;100384.25;5054219;28;20033;-69
2023/03/26 05:31:55;;;;;;;38.75;9.20;;;;;;;5.85;100.00;100386.91;5054180;28;20489;-68
2023/03/26 05:34:23;;;;;;;47.40;9.40;;;;;;;5.85;100.00;100386.09;5053526;28;20041;-68
2023/03/26 05:36:49;;;;;;;48.40;9.05;;;;;;;5.83;100.00;100384.38;5053925;28;20370;-68
2023/03/26 05:39:14;;;;;;;60.92;9.45;;;;;;;5.83;100.00;100367.72;5019391;28;20496;-68
2023/03/26 05:41:40;;;;;;;39.10;8.88;;;;;;;5.82;100.00;100373.94;5053705;28;20064;-69
2023/03/26 05:44:05;;;;;;;48.53;10.52;;;;;;;5.81;100.00;100375.75;5035507;28;20037;-69
2023/03/26 05:46:31;;;;;;;39.05;9.65;;;;;;;5.81;100.00;100369.66;5053604;28;20397;-69
2023/03/26 05:48:56;;;;;;;44.78;9.65;;;;;;;5.79;100.00;100369.78;5053675;28;20045;-68
2023/03/26 05:51:22;;;;;;;45.70;9.20;;;;;;;5.79;100.00;100371.56;5053224;28;20079;-68
2023/03/26 05:53:48;;;;;;;42.63;9.00;;;;;;;5.80;100.00;100375.88;5053476;28;20440;-68
2023/03/26 05:56:13;;;;;;;46.03;10.13;;;;;;;5.81;100.00;100374.94;5053127;28;20366;-68
2023/03/26 05:58:38;;;;;;;41.88;10.00;;;;;;;5.81;100.00;100373.13;5053273;28;20037;-69
2023/03/26 06:01:07;;;;;;;60.53;10.27;;;;;;;5.83;100.00;100370.34;5053124;28;20474;-70
2023/03/26 06:03:39;;;;;;;49.17;9.63;;;;;;;5.83;100.00;100363.25;5053478;28;20021;-69
2023/03/26 06:06:14;;;;;;;39.97;9.07;;;;;;;5.86;100.00;100369.28;5052964;28;20037;-69
2023/03/26 06:08:45;;;;;;;40.58;8.60;;;;;;;5.87;100.00;100360.38;5053383;28;20029;-69
2023/03/26 06:11:11;;;;;;;;;;;;;;;5.88;100.00;100360.28;5053430;28;20029;-69
2023/03/26 06:13:37;;;;;;;48.92;9.43;;;;;;;5.90;100.00;100358.34;5035285;28;19958;-69
2023/03/26 06:16:03;;;;;;;38.90;8.95;;;;;;;5.93;100.00;100359.94;5053010;28;20466;-70
2023/03/26 06:18:28;;;;;;;51.83;10.23;;;;;;;5.93;100.00;100355.47;5053151;28;20539;-69
2023/03/26 06:20:53;;;;;;;36.13;8.23;;;;;;;5.95;100.00;100350.06;5052776;28;20033;-69
2023/03/26 06:23:19;;;;;;;40.22;8.57;;;;;;;5.97;100.00;100353.44;5052612;28;20040;-69
2023/03/26 06:25:45;;;;;;;47.25;8.45;;;;;;;5.99;100.00;100351.56;5053054;28;20025;-69
2023/03/26 06:28:11;;;;;;;53.78;9.30;;;;;;;6.01;100.00;100349.63;5052297;28;20036;-70
2023/03/26 06:30:37;;;;;;;52.92;9.15;;;;;;;6.06;100.00;100351.88;5052700;28;20082;-69
2023/03/26 06:33:03;;;;;;;34.35;8.45;;;;;;;6.09;100.00;100346.38;5052987;28;20029;-70
2023/03/26 06:35:29;;;;;;;42.20;8.65;;;;;;;6.12;100.00;100352.25;5051643;28;20085;-70
2023/03/26 06:37:55;;;;;;;43.05;8.20;;;;;;;6.15;100.00;100351.16;5052685;28;20036;-70
2023/03/26 06:40:20;;;;;;;43.80;8.45;;;;;;;6.18;100.00;100349.13;5052392;28;20056;-69
2023/03/26 06:42:46;;;;;;;39.90;8.73;;;;;;;6.22;100.00;100354.16;5052709;28;20033;-69
2023/03/26 06:45:11;;;;;;;43.63;7.70;;;;;;;6.25;100.00;100352.09;5052314;28;20035;-69
2023/03/26 06:47:37;;;;;;;45.13;8.15;;;;;;;6.27;100.00;100354.63;5052474;28;20531;-70
2023/03/26 06:50:02;;;;;;;43.78;7.75;;;;;;;6.31;100.00;100345.50;5034902;28;20049;-70
2023/03/26 06:52:28;;;;;;;48.22;7.72;;;;;;;6.33;100.00;100356.78;5052204;28;20473;-69
2023/03/26 06:54:53;;;;;;;33.10;7.43;;;;;;;6.34;100.00;100359.31;5052545;28;20032;-69
2023/03/26 06:57:19;;;;;;;59.28;8.63;;;;;;;6.36;100.00;100351.25;5034210;28;20072;-69
2023/03/26 06:59:45;;;;;;;28.90;7.45;;;;;;;6.39;100.00;100352.78;5034862;28;20033;-70
2023/03/26 07:02:10;;;;;;;36.13;7.53;;;;;;;6.41;100.00;100358.81;5052066;28;20040;-70
2023/03/26 07:04:36;;;;;;;40.42;7.40;;;;;;;6.44;100.00;100351.47;5052488;28;20330;-69
2023/03/26 07:07:02;;;;;;;43.72;7.22;;;;;;;6.47;100.00;100358.31;5052370;28;20044;-70
2023/03/26 07:09:29;;;;;;;42.75;8.13;;;;;;;6.51;100.00;100357.09;5052102;28;20408;-70
2023/03/26 07:11:56;;;;;;;43.15;7.50;;;;;;;6.55;100.00;100347.13;5052398;28;20033;-69
2023/03/26 07:14:23;;;;;;;32.75;7.30;;;;;;;6.60;100.00;100352.84;5051833;28;20039;-69
2023/03/26 07:16:49;;;;;;;43.78;8.07;;;;;;;6.63;100.00;100348.16;5052290;28;20063;-70
2023/03/26 07:19:14;;;;;;;55.63;8.43;;;;;;;6.67;100.00;100346.97;5051684;28;20037;-70
2023/03/26 07:21:40;;;;;;;44.17;10.20;;;;;;;6.73;100.00;100348.25;5052193;28;20465;-70
2023/03/26 07:24:09;;;;;;;47.47;9.02;;;;;;;6.77;100.00;100347.03;5050928;28;20443;-70
2023/03/26 07:26:43;;;;;;;36.65;8.68;;;;;;;6.84;100.00;100347.38;5051810;28;20029;-70
2023/03/26 07:29:42;;;;;;;33.03;7.68;;;;;;;6.92;100.00;100349.38;5052205;28;20055;-70
2023/03/26 07:32:22;;;;;;;43.40;8.32;;;;;;;7.00;100.00;100347.78;5052213;28;20052;-70
2023/03/26 07:34:58;;;;;;;46.35;9.70;;;;;;;7.04;100.00;100349.19;5052064;28;20406;-70
2023/03/26 07:37:49;;;;;;;46.97;9.32;;;;;;;7.04;100.00;100343.88;5051789;28;20036;-70
2023/03/26 07:40:34;;;;;;;47.85;9.52;;;;;;;7.06;100.00;100349.03;5051769;28;20029;-71
2023/03/26 07:43:27;;;;;;;35.75;8.73;;;;;;;7.06;100.00;100343.75;5052019;28;20029;-70
2023/03/26 07:45:53;;;;;;;45.90;10.13;;;;;;;7.06;100.00;100349.91;5052229;28;20044;-70
2023/03/26 07:48:28;;;;;;;45.47;10.77;;;;;;;7.06;100.00;100349.91;5052856;28;20045;-70
2023/03/26 07:50:55;;;;;;;56.13;11.40;;;;;;;7.07;100.00;100348.91;5056024;28;20037;-72
2023/03/26 07:53:21;;;;;;;55.42;16.42;;;;;;;7.03;100.00;100346.66;5055587;28;20052;-71
2023/03/26 07:56:14;;;;;;;44.95;11.23;;;;;;;6.96;100.00;100338.41;5037904;28;20400;-70
2023/03/26 07:58:58;;;;;;;56.22;13.02;;;;;;;6.96;100.00;100342.88;5055503;28;20035;-70
2023/03/26 08:01:37;;;;;;;45.83;13.38;;;;;;;6.93;100.00;100343.97;5055543;28;20036;-70
2023/03/26 08:04:08;;;;;;;68.28;13.55;;;;;;;6.90;100.00;100344.22;5055602;28;20484;-71
2023/03/26 08:06:39;;;;;;;59.45;15.70;;;;;;;6.89;100.00;100343.34;5055057;28;20029;-71
2023/03/26 08:09:16;;;;;;;47.20;12.77;;;;;;;6.90;100.00;100344.22;5037841;28;20368;-70
2023/03/26 08:11:47;;;;;;;48.70;12.85;;;;;;;6.88;100.00;100333.75;5055227;28;20268;-70
2023/03/26 08:14:23;;;;;;;53.20;13.25;;;;;;;6.88;100.00;100339.06;5055571;28;20024;-70
2023/03/26 08:17:15;;;;;;;40.80;12.55;;;;;;;6.86;100.00;100338.31;5055613;28;20122;-71
2023/03/26 08:20:06;;;;;;;47.72;13.77;;;;;;;6.86;100.00;100343.63;5054312;28;20068;-70
2023/03/26 08:22:39;;;;;;;37.03;14.00;;;;;;;6.86;100.00;100335.69;5019003;28;20060;-70
2023/03/26 08:25:31;;;;;;;50.78;14.70;;;;;;;6.84;100.00;100337.63;5048672;28;20068;-70
2023/03/26 08:28:15;;;;;;;44.80;13.25;;;;;;;6.82;100.00;100339.56;5048505;28;20029;-73
2023/03/26 08:30:42;;;;;;;44.38;13.05;;;;;;;6.81;100.00;100337.06;5054205;28;20097;-72
2023/03/26 08:33:10;;;;;;;46.70;13.93;;;;;;;6.83;100.00;100340.41;5054332;28;20044;-71
2023/03/26 08:35:40;;;;;;;38.60;11.48;;;;;;;6.84;100.00;100340.28;5035889;28;20033;-72
2023/03/26 08:38:06;;;;;;;49.45;13.45;;;;;;;6.88;100.00;100346.13;5054556;28;20068;-71
2023/03/26 08:41:03;;;;;;;38.25;11.75;;;;;;;6.93;100.00;100343.13;5036003;28;20068;-71
2023/03/26 08:43:37;;;;;;;42.47;10.88;;;;;;;6.96;100.00;100338.41;5022723;28;20045;-71
2023/03/26 08:46:24;;;;;;;46.42;11.07;;;;;;;7.00;100.00;100345.13;5054356;28;20029;-70
2023/03/26 08:48:58;;;;;;;36.50;11.13;;;;;;;7.06;100.00;100346.41;5068990;28;20053;-71
2023/03/26 08:51:48;;;;;;;47.92;12.18;;;;;;;7.11;100.00;100346.88;5053733;28;20388;-70
2023/03/26 08:54:29;;;;;;;44.28;12.45;;;;;;;7.13;100.00;100342.28;5053724;28;20029;-70
2023/03/26 08:57:11;;;;;;;42.65;13.13;;;;;;;7.10;100.00;100347.84;5069540;28;20072;-69
2023/03/26 08:59:52;;;;;;;52.63;15.65;;;;;;;7.06;100.00;100351.69;5053069;28;20067;-72
2023/03/26 09:03:02;;;;;;;61.13;16.75;;;;;;;7.02;100.00;100350.28;5054030;28;20130;-69
2023/03/26 09:05:53;;;;;;;36.67;12.18;;;;;;;6.91;100.00;100351.16;4991824;28;20034;-69
2023/03/26 09:09:13;;;;;;;20.50;9.65;;;;;;;6.82;100.00;100349.28;5035868;28;20136;-69
2023/03/26 09:11:50;;;;;;;21.98;10.18;;;;;;;6.77;100.00;100362.88;4982151;28;20187;-68
2023/03/26 09:14:45;;;;;;;24.00;10.32;;;;;;;6.75;100.00;100350.75;5053617;28;20136;-69
2023/03/26 09:17:35;;;;;;;28.05;11.77;;;;;;;6.79;100.00;100354.84;5043151;28;20091;-68
2023/03/26 09:20:38;;;;;;;24.35;12.10;;;;;;;6.82;100.00;100367.78;5053140;28;20033;-70
2023/03/26 09:23:09;;;;;;;32.08;12.68;;;;;;;6.82;100.00;100360.72;5053370;28;20036;-70
2023/03/26 09:25:59;;;;;;;28.48;12.95;;;;;;;6.87;100.00;100371.75;5053213;28;20024;-69
2023/03/26 09:28:46;;;;;;;28.73;12.00;;;;;;;6.89;100.00;100363.69;5045007;28;20035;-70
2023/03/26 09:31:19;;;;;;;32.50;12.98;;;;;;;6.89;100.00;100366.34;5045132;28;20028;-69
2023/03/26 09:34:00;;;;;;;40.75;12.93;;;;;;;6.85;100.00;100372.84;5053788;28;20032;-69
2023/03/26 09:36:53;;;;;;;31.77;13.83;;;;;;;6.78;100.00;100376.97;5053900;28;20048;-71
2023/03/26 09:39:50;;;;;;;38.33;13.43;;;;;;;6.83;100.00;100369.50;5054170;28;20013;-70
2023/03/26 09:42:28;;;;;;;40.70;14.13;;;;;;;6.87;100.00;100378.84;5054013;28;20377;-69
2023/03/26 09:45:21;;;;;;;43.38;13.90;;;;;;;6.91;100.00;100374.13;5054107;28;20492;-69
2023/03/26 09:48:28;;;;;;;32.95;11.30;;;;;;;6.98;100.00;100383.25;5053539;28;20100;-69
2023/03/26 09:51:11;;;;;;;37.67;11.30;;;;;;;7.01;100.00;100383.00;4972755;28;20046;-69
2023/03/26 09:53:42;;;;;;;32.42;10.05;;;;;;;7.05;100.00;100389.72;5045824;28;20508;-69
2023/03/26 09:56:34;;;;;;;28.63;9.10;;;;;;;7.04;100.00;100388.84;5035944;28;20455;-69
2023/03/26 09:59:16;;;;;;;23.58;8.60;;;;;;;7.01;100.00;100398.88;5054017;28;20031;-70
2023/03/26 10:01:52;;;;;;;16.40;8.23;;;;;;;6.98;100.00;100397.31;5046729;28;20033;-69
2023/03/26 10:04:58;;;;;;;15.43;7.32;;;;;;;6.91;100.00;100401.41;5047629;28;20040;-71
2023/03/26 10:07:37;;;;;;;17.55;5.78;;;;;;;6.89;100.00;100403.34;5052853;28;20040;-69
2023/03/26 10:10:21;;;;;;;18.52;5.20;;;;;;;6.94;100.00;100403.84;5052119;28;20104;-69
2023/03/26 10:13:09;;;;;;;22.80;4.47;;;;;;;6.97;100.00;100408.88;5052169;28;20037;-70
2023/03/26 10:16:06;;;;;;;17.13;4.43;;;;;;;7.00;100.00;100405.13;5051609;28;20079;-69
2023/03/26 10:18:56;;;;;;;14.88;4.35;;;;;;;7.18;100.00;100406.25;5067587;28;20032;-70
2023/03/26 10:21:56;;;;;;;26.88;5.45;;;;;;;7.51;100.00;100411.47;5052448;28;20500;-70
2023/03/26 10:25:01;;;;;;;21.63;4.45;;;;;;;7.77;100.00;100418.03;5052584;28;20029;-71
2023/03/26 10:27:30;;;;;;;20.85;3.80;;;;;;;7.87;100.00;100412.81;5052353;28;20021;-69
2023/03/26 10:30:24;;;;;;;13.57;3.05;;;;;;;7.82;100.00;100420.28;5052200;28;20064;-70
2023/03/26 10:32:57;;;;;;;12.80;3.45;;;;;;;7.76;100.00;100415.53;5052085;28;20799;-69
2023/03/26 10:35:29;;;;;;;15.85;3.42;;;;;;;7.81;100.00;100423.06;5067533;28;20465;-69
2023/03/26 10:38:07;;;;;;;26.10;3.75;;;;;;;7.92;100.00;100429.13;5051590;28;20032;-71
2023/03/26 10:41:03;;;;;;;19.98;3.67;;;;;;;7.98;100.00;100429.59;5067091;28;20525;-70
2023/03/26 10:43:53;;;;;;;22.40;3.63;;;;;;;8.05;100.00;100436.88;5052080;28;20033;-70
2023/03/26 10:46:46;;;;;;;21.63;3.83;;;;;;;8.03;100.00;100435.31;5052222;28;20025;-69
2023/03/26 10:49:38;;;;;;;23.05;4.35;;;;;;;7.94;100.00;100435.16;5051601;28;20239;-69
2023/03/26 10:52:06;;;;;;;28.48;4.20;;;;;;;7.83;100.00;100439.69;5051832;28;20033;-69
2023/03/26 10:54:53;;;;;;;27.52;3.75;;;;;;;7.69;100.00;100444.34;5017222;28;20029;-71
2023/03/26 10:57:25;;;;;;;21.63;3.97;;;;;;;7.73;100.00;100442.28;5051857;28;20037;-69
2023/03/26 10:59:56;;;;;;;22.20;4.45;;;;;;;7.75;100.00;100443.81;5050957;28;20025;-69
2023/03/26 11:02:26;;;;;;;;;;;;;;;7.83;100.00;100450.28;5051913;28;20453;-69
2023/03/26 11:05:14;;;;;;;23.15;4.18;;;;;;;7.91;100.00;100450.47;5050943;28;19927;-71
2023/03/26 11:07:50;;;;;;;21.92;3.63;;;;;;;7.98;100.00;100456.91;5049730;28;20025;-70
2023/03/26 11:10:31;;;;;;;19.42;3.60;;;;;;;7.86;100.00;100461.44;5051315;28;20025;-69
2023/03/26 11:13:00;;;;;;;19.67;3.60;;;;;;;7.86;100.00;100458.81;5051447;28;20029;-70
2023/03/26 11:15:42;;;;;;;20.90;3.67;;;;;;;7.95;100.00;100463.31;5051828;28;20028;-69
2023/03/26 11:18:40;;;;;;;20.00;3.60;;;;;;;8.09;100.00;100467.44;5033876;28;20045;-69
2023/03/26 11:21:23;;;;;;;23.08;3.85;;;;;;;8.24;100.00;100467.06;5051663;28;20132;-70
2023/03/26 11:24:22;;;;;;;23.35;3.85;;;;;;;8.49;100.00;100465.81;5051018;28;20468;-70
2023/03/26 11:26:54;;;;;;;15.82;3.55;;;;;;;8.86;100.00;100478.47;5051075;28;20094;-70
2023/03/26 11:29:46;;;;;;;26.52;4.20;;;;;;;8.86;100.00;100477.66;5051514;28;20041;-69
2023/03/26 11:32:16;;;;;;;17.55;3.38;;;;;;;9.03;100.00;100479.59;5014725;28;20462;-69
2023/03/26 11:35:14;;;;;;;19.80;3.33;;;;;;;9.10;100.00;100480.72;5051170;28;20037;-69
2023/03/26 11:37:50;;;;;;;20.55;3.85;;;;;;;9.05;100.00;100484.81;5035310;28;20104;-69
2023/03/26 11:40:40;;;;;;;18.75;3.90;;;;;;;9.04;100.00;100485.78;5029003;28;20076;-68
2023/03/26 11:43:12;;;;;;;21.50;4.13;;;;;;;9.10;100.00;100494.00;5028698;28;20026;-69
2023/03/26 11:45:42;;;;;;;16.98;3.45;;;;;;;9.07;100.00;100501.41;5028351;28;20044;-69